createdAt,value
2019-03-12T00:00:43.993Z,4.40
2019-03-12T00:03:13.541Z,3.40
2019-03-12T00:05:43.084Z,2.50
2019-03-12T00:08:12.688Z,8.27
2019-03-12T00:10:42.412Z,2.40
2019-03-12T00:13:12.050Z,4.07
2019-03-12T00:15:41.575Z,3.23
2019-03-12T00:18:11.099Z,2.60
2019-03-12T00:20:40.652Z,3.13
2019-03-12T00:23:10.185Z,6.10
2019-03-12T00:25:39.740Z,3.27
2019-03-12T00:28:09.312Z,3.93
2019-03-12T00:30:38.955Z,5.23
2019-03-12T00:33:08.511Z,8.83
2019-03-12T00:35:38.048Z,4.80
2019-03-12T00:38:07.706Z,5.63
2019-03-12T00:40:37.282Z,6.00
2019-03-12T00:43:06.924Z,4.13
2019-03-12T00:45:36.448Z,3.40
2019-03-12T00:48:06.034Z,4.23
2019-03-12T00:50:35.579Z,4.37
2019-03-12T00:53:05.227Z,2.13
2019-03-12T00:55:34.787Z,3.10
2019-03-12T00:58:04.316Z,2.10
2019-03-12T01:00:33.892Z,2.70
2019-03-12T01:03:03.524Z,3.07
2019-03-12T01:05:33.143Z,2.17
2019-03-12T01:08:02.697Z,3.50
2019-03-12T01:10:32.333Z,2.80
2019-03-12T01:13:01.880Z,1.17
2019-03-12T01:15:31.429Z,3.23
2019-03-12T01:18:01.100Z,1.63
2019-03-12T01:20:30.741Z,1.30
2019-03-12T01:23:00.316Z,1.20
2019-03-12T01:25:30.119Z,1.00
2019-03-12T01:27:59.760Z,1.33
2019-03-12T01:30:29.336Z,1.63
2019-03-12T01:32:58.967Z,0.97
2019-03-12T01:35:28.702Z,2.80
2019-03-12T01:37:58.210Z,1.83
2019-03-12T01:40:27.791Z,2.13
2019-03-12T01:42:57.427Z,1.73
2019-03-12T01:45:26.979Z,2.30
2019-03-12T01:47:56.555Z,0.90
2019-03-12T01:50:26.091Z,5.00
2019-03-12T01:52:55.738Z,1.77
2019-03-12T01:55:25.262Z,3.90
2019-03-12T01:57:54.843Z,1.23
2019-03-12T02:00:24.382Z,0.90
2019-03-12T02:02:53.948Z,1.83
2019-03-12T02:05:23.738Z,1.57
2019-03-12T02:07:53.291Z,3.33
2019-03-12T02:10:23.005Z,2.37
2019-03-12T02:12:52.604Z,1.30
2019-03-12T02:15:22.160Z,1.60
2019-03-12T02:17:51.820Z,1.30
2019-03-12T02:20:21.582Z,1.27
2019-03-12T02:22:51.163Z,6.87
2019-03-12T02:25:20.907Z,3.00
2019-03-12T02:27:50.491Z,1.40
2019-03-12T02:30:20.229Z,1.87
2019-03-12T02:32:49.780Z,1.93
2019-03-12T02:35:19.473Z,1.30
2019-03-12T02:37:49.060Z,2.30
2019-03-12T02:40:18.617Z,3.33
2019-03-12T02:42:48.190Z,1.70
2019-03-12T02:45:17.779Z,2.27
2019-03-12T02:47:47.501Z,1.80
2019-03-12T02:50:17.186Z,2.50
2019-03-12T02:52:46.841Z,3.50
2019-03-12T02:55:16.458Z,1.70
2019-03-12T02:57:46.074Z,1.00
2019-03-12T03:00:18.681Z,1.80
2019-03-12T03:02:48.321Z,5.07
2019-03-12T03:05:18.029Z,1.60
2019-03-12T03:07:52.710Z,1.57
2019-03-12T03:10:22.569Z,1.73
2019-03-12T03:12:52.404Z,1.67
2019-03-12T03:15:26.973Z,5.20
2019-03-12T03:17:56.608Z,2.03
2019-03-12T03:20:26.245Z,2.30
2019-03-12T03:22:55.948Z,1.90
2019-03-12T03:25:25.537Z,3.17
2019-03-12T03:27:55.164Z,1.77
2019-03-12T03:30:24.969Z,1.40
2019-03-12T03:32:54.901Z,1.70
2019-03-12T03:35:24.468Z,1.40
2019-03-12T03:37:54.039Z,1.50
2019-03-12T03:40:23.794Z,1.70
2019-03-12T03:42:53.360Z,1.30
2019-03-12T03:45:23.001Z,1.93
2019-03-12T03:47:52.634Z,3.03
2019-03-12T03:50:22.200Z,2.03
2019-03-12T03:52:51.845Z,3.10
2019-03-12T03:55:21.455Z,4.10
2019-03-12T03:57:51.143Z,3.13
2019-03-12T04:00:21.676Z,2.37
2019-03-12T04:02:51.358Z,2.00
2019-03-12T04:05:20.917Z,2.80
2019-03-12T04:07:50.476Z,2.23
2019-03-12T04:10:20.056Z,1.50
2019-03-12T04:12:49.835Z,1.90
2019-03-12T04:15:19.487Z,1.90
2019-03-12T04:17:49.108Z,0.90
2019-03-12T04:20:18.744Z,2.20
2019-03-12T04:22:48.408Z,1.10
2019-03-12T04:25:17.973Z,0.93
2019-03-12T04:27:47.658Z,1.63
2019-03-12T04:30:17.271Z,0.80
2019-03-12T04:32:46.870Z,1.13
2019-03-12T04:35:18.198Z,4.00
2019-03-12T04:37:47.865Z,5.77
2019-03-12T04:40:17.645Z,1.00
2019-03-12T04:42:47.269Z,1.13
2019-03-12T04:45:17.173Z,1.70
2019-03-12T04:47:46.801Z,3.20
2019-03-12T04:50:16.831Z,12.17
2019-03-12T04:52:46.527Z,2.50
2019-03-12T04:55:16.127Z,6.77
2019-03-12T04:57:45.775Z,1.97
2019-03-12T05:00:16.738Z,1.57
2019-03-12T05:02:46.315Z,2.53
2019-03-12T05:05:16.063Z,3.17
2019-03-12T05:07:45.825Z,4.27
2019-03-12T05:10:15.501Z,2.23
2019-03-12T05:12:45.269Z,2.60
2019-03-12T05:15:14.965Z,6.60
2019-03-12T05:17:44.980Z,8.53
2019-03-12T05:20:14.988Z,1.10
2019-03-12T05:22:44.603Z,1.60
2019-03-12T05:25:14.376Z,1.80
2019-03-12T05:27:43.978Z,1.43
2019-03-12T05:30:16.150Z,1.63
2019-03-12T05:32:45.745Z,1.60
2019-03-12T05:35:15.508Z,1.87
2019-03-12T05:37:45.199Z,4.80
2019-03-12T05:40:14.785Z,1.60
2019-03-12T05:42:44.403Z,1.20
2019-03-12T05:45:14.118Z,1.60
2019-03-12T05:47:43.676Z,1.43
2019-03-12T05:50:13.321Z,1.47
2019-03-12T05:52:42.838Z,2.03
2019-03-12T05:55:12.446Z,2.20
2019-03-12T05:57:42.044Z,3.27
2019-03-12T06:00:13.223Z,3.77
2019-03-12T06:02:42.875Z,3.43
2019-03-12T06:05:15.083Z,1.83
2019-03-12T06:07:44.761Z,2.17
2019-03-12T06:10:14.407Z,2.77
2019-03-12T06:12:43.971Z,6.17
2019-03-12T06:15:13.542Z,4.70
2019-03-12T06:17:43.122Z,6.83
2019-03-12T06:20:12.710Z,2.30
2019-03-12T06:22:42.253Z,2.53
2019-03-12T06:25:11.927Z,6.37
2019-03-12T06:27:41.584Z,2.87
2019-03-12T06:30:11.983Z,3.00
2019-03-12T06:33:03.119Z,2.80
2019-03-12T06:35:54.568Z,3.53
2019-03-12T06:38:34.317Z,5.23
2019-03-12T06:41:25.545Z,2.43
2019-03-12T06:44:16.825Z,2.97
2019-03-12T06:47:01.572Z,1.90
2019-03-12T06:49:56.033Z,2.17
2019-03-12T06:52:33.908Z,2.70
2019-03-12T06:55:18.709Z,11.80
2019-03-12T06:58:41.985Z,9.53
2019-03-12T07:01:48.688Z,5.33
2019-03-12T07:04:26.115Z,6.80
2019-03-12T07:07:20.479Z,4.90
2019-03-12T07:10:26.915Z,4.00
2019-03-12T07:13:18.300Z,8.87
2019-03-12T07:15:52.711Z,3.00
2019-03-12T07:18:44.123Z,10.27
2019-03-12T07:21:29.812Z,7.60
2019-03-12T07:24:17.845Z,2.63
2019-03-12T07:27:21.598Z,8.10
2019-03-12T07:30:08.418Z,5.20
2019-03-12T07:32:56.468Z,5.03
2019-03-12T07:35:45.049Z,5.60
2019-03-12T07:38:39.485Z,15.13
2019-03-12T07:41:26.510Z,4.13
2019-03-12T07:43:58.511Z,5.50
2019-03-12T07:46:52.995Z,9.33
2019-03-12T07:49:40.050Z,7.37
2019-03-12T07:52:31.393Z,8.07
2019-03-12T07:55:17.737Z,9.37
2019-03-12T07:58:12.129Z,6.30
2019-03-12T08:01:00.564Z,10.60
2019-03-12T08:03:44.465Z,8.10
2019-03-12T08:06:39.164Z,10.00
2019-03-12T08:09:20.791Z,10.43
2019-03-12T08:12:12.206Z,10.27
2019-03-12T08:15:22.666Z,7.80
2019-03-12T08:17:55.904Z,10.80
2019-03-12T08:20:50.097Z,5.17
2019-03-12T08:23:30.789Z,7.57
2019-03-12T08:26:25.260Z,6.20
2019-03-12T08:29:13.761Z,11.97
2019-03-12T08:32:11.505Z,11.80
2019-03-12T08:34:59.940Z,11.67
2019-03-12T08:37:47.292Z,9.00
2019-03-12T08:40:30.053Z,10.43
2019-03-12T08:43:33.722Z,7.77
2019-03-12T08:46:37.650Z,8.17
2019-03-12T08:49:27.133Z,10.13
2019-03-12T08:52:14.370Z,6.37
2019-03-12T08:54:54.466Z,9.10
2019-03-12T08:57:47.413Z,8.37
2019-03-12T09:00:34.610Z,8.47
2019-03-12T09:03:32.067Z,8.90
2019-03-12T09:06:17.966Z,11.07
2019-03-12T09:09:03.844Z,6.20
2019-03-12T09:11:42.270Z,8.77
2019-03-12T09:14:33.784Z,6.63
2019-03-12T09:17:20.966Z,10.20
2019-03-12T09:20:27.678Z,11.60
2019-03-12T09:23:11.087Z,8.87
2019-03-12T09:26:02.080Z,9.83
2019-03-12T09:28:45.642Z,12.30
2019-03-12T09:31:46.213Z,9.67
2019-03-12T09:34:25.138Z,12.10
2019-03-12T09:37:13.508Z,10.57
2019-03-12T09:40:07.106Z,9.23
2019-03-12T09:42:51.784Z,11.83
2019-03-12T09:45:30.627Z,9.67
2019-03-12T09:48:33.991Z,8.40
2019-03-12T09:51:11.406Z,18.40
2019-03-12T09:53:59.073Z,14.27
2019-03-12T09:56:47.464Z,13.17
2019-03-12T09:59:34.421Z,9.90
2019-03-12T10:02:11.524Z,9.70
2019-03-12T10:04:59.771Z,13.27
2019-03-12T10:07:54.115Z,15.20
2019-03-12T10:10:34.466Z,10.23
2019-03-12T10:13:21.640Z,7.87
2019-03-12T10:16:08.780Z,10.90
2019-03-12T10:19:15.197Z,10.57
2019-03-12T10:21:56.141Z,13.23
2019-03-12T10:24:42.113Z,13.67
2019-03-12T10:27:48.933Z,17.33
2019-03-12T10:30:41.313Z,16.53
2019-03-12T10:33:25.993Z,15.83
2019-03-12T10:36:06.764Z,12.30
2019-03-12T10:39:18.077Z,24.20
2019-03-12T10:42:02.172Z,14.67
2019-03-12T10:44:38.050Z,20.03
2019-03-12T10:47:11.884Z,15.63
2019-03-12T10:49:41.578Z,20.03
2019-03-12T10:52:11.177Z,20.10
2019-03-12T10:54:40.747Z,17.60
2019-03-12T10:57:10.412Z,17.00
2019-03-12T10:59:40.034Z,10.37
2019-03-12T11:02:09.630Z,30.30
2019-03-12T11:04:39.309Z,12.40
2019-03-12T11:07:16.367Z,9.33
2019-03-12T11:09:40.230Z,22.37
2019-03-12T11:12:09.932Z,10.00
2019-03-12T11:14:39.710Z,10.67
2019-03-12T11:17:09.329Z,9.57
2019-03-12T11:19:38.891Z,17.03
2019-03-12T11:22:08.542Z,13.83
2019-03-12T11:24:38.378Z,13.33
2019-03-12T11:27:07.931Z,21.43
2019-03-12T11:29:37.600Z,15.17
2019-03-12T11:32:07.311Z,11.13
2019-03-12T11:34:38.588Z,8.80
2019-03-12T11:37:08.546Z,10.30
2019-03-12T11:39:38.169Z,12.87
2019-03-12T11:42:07.730Z,17.50
2019-03-12T11:44:37.373Z,8.53
2019-03-12T11:47:06.927Z,9.83
2019-03-12T11:49:36.554Z,6.63
2019-03-12T11:52:06.180Z,9.07
2019-03-12T11:54:36.700Z,8.90
2019-03-12T11:57:06.282Z,8.43
2019-03-12T11:59:35.922Z,13.33
2019-03-12T12:02:05.527Z,7.77
2019-03-12T12:04:35.070Z,8.40
2019-03-12T12:07:04.689Z,15.57
2019-03-12T12:09:34.357Z,9.00
2019-03-12T12:12:03.925Z,6.90
2019-03-12T12:14:33.473Z,10.80
2019-03-12T12:17:03.077Z,9.50
2019-03-12T12:19:32.686Z,7.70
2019-03-12T12:22:02.238Z,10.77
2019-03-12T12:24:34.969Z,8.60
2019-03-12T12:27:04.649Z,12.90
2019-03-12T12:29:34.364Z,12.60
2019-03-12T12:32:03.967Z,11.20
2019-03-12T12:34:33.541Z,24.33
2019-03-12T12:37:03.439Z,15.37
2019-03-12T12:39:33.036Z,11.37
2019-03-12T12:42:02.604Z,19.37
2019-03-12T12:44:32.283Z,14.53
2019-03-12T12:47:01.829Z,19.60
2019-03-12T12:49:31.396Z,16.60
2019-03-12T12:52:01.030Z,19.87
2019-03-12T12:54:30.703Z,13.77
2019-03-12T12:57:00.288Z,14.23
2019-03-12T12:59:29.835Z,16.47
2019-03-12T13:01:59.394Z,9.03
2019-03-12T13:04:28.975Z,10.73
2019-03-12T13:06:58.533Z,9.10
2019-03-12T13:09:28.109Z,15.77
2019-03-12T13:11:57.662Z,15.37
2019-03-12T13:14:27.217Z,20.30
2019-03-12T13:16:56.769Z,25.37
2019-03-12T13:19:26.487Z,16.43
2019-03-12T13:21:56.053Z,23.10
2019-03-12T13:24:25.602Z,16.67
2019-03-12T13:26:55.145Z,16.07
2019-03-12T13:29:24.727Z,15.93
2019-03-12T13:31:54.267Z,20.87
2019-03-12T13:34:23.839Z,20.53
2019-03-12T13:48:16.564Z,21.93
2019-03-12T13:50:47.263Z,16.57
2019-03-12T13:53:16.919Z,13.20
2019-03-12T13:55:46.491Z,13.17
2019-03-12T13:58:16.076Z,15.83
2019-03-12T14:00:45.626Z,14.90
2019-03-12T14:03:15.216Z,16.57
2019-03-12T14:05:44.932Z,20.77
2019-03-12T14:08:14.622Z,24.50
2019-03-12T14:10:44.207Z,16.47
2019-03-12T14:13:13.782Z,25.67
2019-03-12T14:15:43.350Z,17.53
2019-03-12T14:18:13.038Z,19.97
2019-03-12T14:20:47.167Z,21.33
2019-03-12T14:23:19.622Z,22.27
2019-03-12T14:25:49.362Z,17.07
2019-03-12T14:28:18.941Z,21.53
2019-03-12T14:30:48.532Z,22.10
2019-03-12T14:33:18.194Z,22.60
2019-03-12T14:35:51.734Z,24.83
2019-03-12T14:38:19.379Z,43.97
2019-03-12T14:40:48.878Z,28.80
2019-03-12T14:43:18.440Z,32.40
2019-03-12T14:45:51.836Z,18.70
2019-03-12T14:48:58.427Z,23.50
2019-03-12T14:51:46.749Z,18.53
2019-03-12T14:54:16.384Z,22.03
2019-03-12T14:56:46.085Z,23.57
2019-03-12T14:59:15.682Z,22.80
2019-03-12T15:01:45.260Z,27.43
2019-03-12T15:04:15.302Z,25.57
2019-03-12T15:06:45.147Z,26.90
2019-03-12T15:09:15.926Z,29.67
2019-03-12T15:11:45.527Z,21.47
2019-03-12T15:14:15.174Z,13.60
2019-03-12T15:16:44.879Z,17.50
2019-03-12T15:19:14.492Z,20.23
2019-03-12T15:21:44.034Z,16.20
2019-03-12T15:24:13.599Z,22.03
2019-03-12T15:26:43.176Z,20.53
2019-03-12T15:29:12.905Z,15.50
2019-03-12T15:31:42.485Z,17.60
2019-03-12T15:34:12.073Z,18.00
2019-03-12T15:36:45.108Z,21.43
2019-03-12T15:39:12.976Z,15.00
2019-03-12T15:41:42.630Z,14.43
2019-03-12T15:44:12.185Z,17.73
2019-03-12T15:46:41.839Z,16.77
2019-03-12T15:49:11.509Z,28.97
2019-03-12T15:51:41.655Z,28.63
2019-03-12T15:54:11.349Z,34.37
2019-03-12T15:56:40.929Z,35.00
2019-03-12T15:59:10.564Z,47.70
2019-03-12T16:01:40.117Z,34.07
2019-03-12T16:04:09.766Z,26.50
2019-03-12T16:06:39.342Z,26.07
2019-03-12T16:09:08.984Z,28.57
2019-03-12T16:11:38.561Z,29.57
2019-03-12T16:14:08.159Z,31.33
2019-03-12T16:16:37.727Z,32.20
2019-03-12T16:19:07.435Z,28.70
2019-03-12T16:21:37.142Z,26.93
2019-03-12T16:24:06.781Z,31.23
2019-03-12T16:26:36.397Z,37.00
2019-03-12T16:29:06.034Z,31.87
2019-03-12T16:31:35.600Z,23.47
2019-03-12T16:34:05.265Z,30.67
2019-03-12T16:36:34.904Z,30.27
2019-03-12T16:39:05.408Z,22.60
2019-03-12T16:41:35.025Z,22.07
2019-03-12T16:44:04.724Z,25.80
2019-03-12T16:46:37.318Z,25.97
2019-03-12T16:49:07.006Z,28.37
2019-03-12T16:51:36.614Z,24.73
2019-03-12T16:54:06.271Z,24.27
2019-03-12T16:56:45.077Z,28.40
2019-03-12T16:59:08.807Z,24.10
2019-03-12T17:01:38.589Z,27.10
2019-03-12T17:04:08.168Z,22.33
2019-03-12T17:06:37.855Z,21.17
2019-03-12T17:09:07.521Z,17.73
2019-03-12T17:11:37.159Z,21.27
2019-03-12T17:14:06.735Z,25.57
2019-03-12T17:16:36.418Z,25.50
2019-03-12T17:19:06.122Z,20.67
2019-03-12T17:21:35.644Z,17.83
2019-03-12T17:24:05.365Z,21.47
2019-03-12T17:26:34.934Z,36.10
2019-03-12T17:29:04.500Z,29.43
2019-03-12T17:31:34.068Z,25.77
2019-03-12T17:34:03.637Z,27.80
2019-03-12T17:36:33.199Z,32.10
2019-03-12T17:39:02.796Z,24.10
2019-03-12T17:41:32.469Z,26.90
2019-03-12T17:44:02.064Z,22.17
2019-03-12T17:46:31.703Z,30.07
2019-03-12T17:49:01.374Z,25.77
2019-03-12T17:51:30.967Z,33.30
2019-03-12T17:54:00.605Z,35.93
2019-03-12T17:56:30.216Z,25.17
2019-03-12T17:58:59.750Z,25.47
2019-03-12T18:01:30.365Z,25.80
2019-03-12T18:03:59.970Z,21.70
2019-03-12T18:06:29.700Z,28.20
2019-03-12T18:08:59.305Z,28.10
2019-03-12T18:11:28.931Z,22.80
2019-03-12T18:13:58.485Z,22.30
2019-03-12T18:16:39.945Z,22.40
2019-03-12T18:18:59.348Z,18.80
2019-03-12T18:21:28.966Z,17.27
2019-03-12T18:23:58.571Z,24.03
2019-03-12T18:26:28.149Z,22.83
2019-03-12T18:28:59.347Z,26.20
2019-03-12T18:31:29.108Z,19.53
2019-03-12T18:33:58.740Z,22.00
2019-03-12T18:36:28.380Z,18.17
2019-03-12T18:38:57.934Z,15.43
2019-03-12T18:41:27.575Z,16.20
2019-03-12T18:43:57.967Z,16.90
2019-03-12T18:46:30.340Z,16.20
2019-03-12T18:49:02.171Z,17.53
2019-03-12T18:51:34.049Z,16.67
2019-03-12T18:54:03.601Z,15.63
2019-03-12T18:56:35.829Z,15.67
2019-03-12T18:59:06.553Z,17.43
2019-03-12T19:01:36.171Z,24.83
2019-03-12T19:04:05.828Z,18.00
2019-03-12T19:06:35.396Z,17.97
2019-03-12T19:09:06.074Z,15.70
2019-03-12T19:11:37.537Z,16.70
2019-03-12T19:14:06.948Z,19.30
2019-03-12T19:16:36.543Z,17.83
2019-03-12T19:19:06.109Z,26.33
2019-03-12T19:21:35.909Z,19.90
2019-03-12T19:24:05.583Z,19.77
2019-03-12T19:26:35.242Z,23.07
2019-03-12T19:29:04.847Z,35.00
2019-03-12T19:32:03.788Z,26.27
2019-03-12T19:34:35.480Z,22.03
2019-03-12T19:37:05.175Z,26.97
2019-03-12T19:39:35.175Z,16.50
2019-03-12T19:42:04.776Z,22.60
2019-03-12T19:44:34.440Z,20.03
2019-03-12T19:47:04.781Z,12.90
2019-03-12T19:49:34.557Z,20.33
2019-03-12T19:52:04.327Z,20.83
2019-03-12T19:54:33.894Z,18.43
2019-03-12T19:57:03.457Z,17.50
2019-03-12T19:59:33.028Z,22.33
2019-03-12T20:02:15.259Z,19.97
2019-03-12T20:04:46.789Z,41.00
2019-03-12T20:07:06.243Z,30.43
2019-03-12T20:10:28.694Z,31.30
2019-03-12T20:13:34.180Z,16.80
2019-03-12T20:16:50.351Z,18.37
2019-03-12T20:20:09.395Z,19.50
2019-03-12T20:23:14.492Z,14.40
2019-03-12T20:26:21.095Z,15.20
2019-03-12T20:29:39.189Z,14.77
2019-03-12T20:32:51.074Z,17.30
2019-03-12T20:36:10.294Z,17.30
2019-03-12T20:39:25.636Z,22.60
2019-03-12T20:42:44.054Z,26.40
2019-03-12T20:46:00.382Z,22.37
2019-03-12T20:49:11.006Z,28.30
2019-03-12T20:52:26.484Z,25.70
2019-03-12T20:55:35.687Z,32.03
2019-03-12T20:58:57.601Z,26.77
2019-03-12T21:02:14.194Z,18.50
2019-03-12T21:05:23.957Z,20.53
2019-03-12T21:08:33.399Z,20.60
2019-03-12T21:11:55.130Z,16.43
2019-03-12T21:15:14.429Z,16.03
2019-03-12T21:18:22.153Z,22.77
2019-03-12T21:21:36.614Z,17.80
2019-03-12T21:24:35.531Z,20.73
2019-03-12T21:28:10.181Z,23.60
2019-03-12T21:30:39.834Z,18.80
2019-03-12T21:33:15.256Z,21.10
2019-03-12T21:35:40.752Z,21.80
2019-03-12T21:38:10.373Z,27.87
2019-03-12T21:40:40.038Z,27.90
2019-03-12T21:43:09.604Z,19.17
2019-03-12T21:45:39.171Z,19.23
2019-03-12T21:48:08.788Z,25.13
2019-03-12T21:50:38.348Z,24.30
2019-03-12T21:53:07.932Z,26.53
2019-03-12T21:55:37.988Z,19.80
2019-03-12T21:58:07.745Z,19.67
2019-03-12T22:00:37.307Z,11.87
2019-03-12T22:03:06.855Z,15.60
2019-03-12T22:05:36.487Z,17.40
2019-03-12T22:08:06.155Z,15.83
2019-03-12T22:10:35.800Z,16.43
2019-03-12T22:13:05.369Z,15.40
2019-03-12T22:15:34.952Z,14.87
2019-03-12T22:18:04.604Z,18.00
2019-03-12T22:20:34.185Z,18.90
2019-03-12T22:23:11.423Z,16.40
2019-03-12T22:25:41.069Z,22.67
2019-03-12T22:28:10.793Z,15.30
2019-03-12T22:30:40.732Z,13.30
2019-03-12T22:33:10.433Z,13.60
2019-03-12T22:35:40.212Z,15.77
2019-03-12T22:38:09.960Z,18.23
2019-03-12T22:40:39.549Z,28.37
2019-03-12T22:43:09.151Z,10.70
2019-03-12T22:45:38.729Z,11.60
2019-03-12T22:48:08.462Z,13.83
2019-03-12T22:50:38.046Z,9.93
2019-03-12T22:53:07.635Z,10.40
2019-03-12T22:55:37.228Z,10.33
2019-03-12T22:58:06.892Z,10.73
2019-03-12T23:00:40.327Z,11.00
2019-03-12T23:03:09.991Z,11.43
2019-03-12T23:05:39.619Z,14.70
2019-03-12T23:08:09.352Z,13.73
2019-03-12T23:10:39.411Z,9.90
2019-03-12T23:13:08.980Z,10.43
2019-03-12T23:15:38.568Z,17.83
2019-03-12T23:18:08.146Z,8.10
2019-03-12T23:20:37.835Z,10.90
2019-03-12T23:23:07.420Z,9.67
2019-03-12T23:25:37.953Z,9.83
2019-03-12T23:28:07.634Z,9.90
2019-03-12T23:30:37.177Z,8.83
2019-03-12T23:33:06.757Z,10.47
2019-03-12T23:35:36.315Z,7.00
2019-03-12T23:38:06.077Z,9.37
2019-03-12T23:40:35.750Z,9.87
2019-03-12T23:43:08.534Z,9.63
2019-03-12T23:45:38.229Z,7.53
2019-03-12T23:48:07.912Z,9.80
2019-03-12T23:50:37.485Z,7.87
2019-03-12T23:53:07.161Z,8.20
2019-03-12T23:55:36.803Z,9.50
2019-03-12T23:58:06.420Z,8.33
